Kartaly, Russia
Current Conditions -  °F | °C
As of 9:00 AM on Friday 19 Dec 2014 (Local Time) from USCM Reporting Station
Overcast Overcast  
Wind Chill:   Ceiling: 10000
Heat Index: 12°   Visibility: 4mi
Dew Point: 10°   Wind: 9mph
Humidity: 92%   Direction: 170°S
Pressure: 30.15"   Gusts: NA
Location:  53.05°N, 60.67°E
Report Text: USCM 190300Z 17004MPS 6000 OVC100 M11/M12 Q1021 NOSIG 19090060RMK QFE728
Loading
Personal Weather Stations






























Interactive Weather Map New forecast layout! Learn more

10-Day Weather Forecast

Advertisements
Track Severe Weather on mobile